sensor_id;sensor_type;location;lat;lon;timestamp;pressure;altitude;pressure_sealevel;temperature;humidity
58967;BME280;44744;51.894;5.080;2023-02-12T00:00:21;103975.37;;;7.72;78.74
58967;BME280;44744;51.894;5.080;2023-02-12T00:01:23;103973.23;;;7.70;78.68
58967;BME280;44744;51.894;5.080;2023-02-12T00:02:24;103970.59;;;7.68;78.77
58967;BME280;44744;51.894;5.080;2023-02-12T00:03:24;103969.35;;;7.68;78.85
58967;BME280;44744;51.894;5.080;2023-02-12T00:04:24;103970.23;;;7.68;78.89
58967;BME280;44744;51.894;5.080;2023-02-12T00:05:25;103970.05;;;7.68;78.83
58967;BME280;44744;51.894;5.080;2023-02-12T00:06:25;103971.99;;;7.67;78.87
58967;BME280;44744;51.894;5.080;2023-02-12T00:07:31;103974.27;;;7.67;78.72
58967;BME280;44744;51.894;5.080;2023-02-12T00:08:32;103972.86;;;7.66;78.63
58967;BME280;44744;51.894;5.080;2023-02-12T00:09:33;103973.39;;;7.65;78.70
58967;BME280;44744;51.894;5.080;2023-02-12T00:10:34;103974.78;;;7.64;78.65
58967;BME280;44744;51.894;5.080;2023-02-12T00:11:34;103974.42;;;7.64;78.70
58967;BME280;44744;51.894;5.080;2023-02-12T00:12:34;103971.61;;;7.64;78.78
58967;BME280;44744;51.894;5.080;2023-02-12T00:13:35;103976.20;;;7.65;78.94
58967;BME280;44744;51.894;5.080;2023-02-12T00:14:36;103972.69;;;7.65;78.81
58967;BME280;44744;51.894;5.080;2023-02-12T00:15:42;103967.75;;;7.66;78.87
58967;BME280;44744;51.894;5.080;2023-02-12T00:16:43;103971.62;;;7.66;78.72
58967;BME280;44744;51.894;5.080;2023-02-12T00:17:50;103967.73;;;7.65;78.85
58967;BME280;44744;51.894;5.080;2023-02-12T00:18:52;103965.28;;;7.66;78.85
58967;BME280;44744;51.894;5.080;2023-02-12T00:19:53;103966.86;;;7.65;78.74
58967;BME280;44744;51.894;5.080;2023-02-12T00:20:53;103966.70;;;7.66;78.71
58967;BME280;44744;51.894;5.080;2023-02-12T00:21:54;103968.13;;;7.67;78.72
58967;BME280;44744;51.894;5.080;2023-02-12T00:22:54;103969.70;;;7.67;78.81
58967;BME280;44744;51.894;5.080;2023-02-12T00:23:55;103966.70;;;7.66;78.64
58967;BME280;44744;51.894;5.080;2023-02-12T00:24:55;103973.75;;;7.67;78.64
58967;BME280;44744;51.894;5.080;2023-02-12T00:25:55;103974.64;;;7.67;78.69
58967;BME280;44744;51.894;5.080;2023-02-12T00:26:56;103974.11;;;7.66;78.79
58967;BME280;44744;51.894;5.080;2023-02-12T00:27:56;103974.80;;;7.66;78.79
58967;BME280;44744;51.894;5.080;2023-02-12T00:28:57;103974.64;;;7.66;78.70
58967;BME280;44744;51.894;5.080;2023-02-12T00:29:57;103969.86;;;7.66;78.65
58967;BME280;44744;51.894;5.080;2023-02-12T00:30:58;103970.91;;;7.65;78.65
58967;BME280;44744;51.894;5.080;2023-02-12T00:32:03;103966.86;;;7.64;78.51
58967;BME280;44744;51.894;5.080;2023-02-12T00:33:05;103968.80;;;7.64;78.61
58967;BME280;44744;51.894;5.080;2023-02-12T00:34:06;103968.60;;;7.62;78.57
58967;BME280;44744;51.894;5.080;2023-02-12T00:35:09;103971.77;;;7.59;78.54
58967;BME280;44744;51.894;5.080;2023-02-12T00:36:13;103972.80;;;7.58;78.64
58967;BME280;44744;51.894;5.080;2023-02-12T00:37:15;103973.85;;;7.58;78.51
58967;BME280;44744;51.894;5.080;2023-02-12T00:38:15;103975.80;;;7.58;78.52
58967;BME280;44744;51.894;5.080;2023-02-12T00:39:15;103974.56;;;7.58;78.61
58967;BME280;44744;51.894;5.080;2023-02-12T00:40:19;103973.34;;;7.59;78.59
58967;BME280;44744;51.894;5.080;2023-02-12T00:41:23;103974.77;;;7.61;78.67
58967;BME280;44744;51.894;5.080;2023-02-12T00:42:25;103973.54;;;7.62;78.67
58967;BME280;44744;51.894;5.080;2023-02-12T00:43:26;103971.78;;;7.62;78.74
58967;BME280;44744;51.894;5.080;2023-02-12T00:44:26;103969.31;;;7.61;78.58
58967;BME280;44744;51.894;5.080;2023-02-12T00:45:26;103973.35;;;7.61;78.62
58967;BME280;44744;51.894;5.080;2023-02-12T00:46:27;103971.26;;;7.62;78.80
58967;BME280;44744;51.894;5.080;2023-02-12T00:47:28;103973.55;;;7.64;78.81
58967;BME280;44744;51.894;5.080;2023-02-12T00:49:16;103972.52;;;7.66;78.85
58967;BME280;44744;51.894;5.080;2023-02-12T00:50:14;103971.98;;;7.66;78.81
58967;BME280;44744;51.894;5.080;2023-02-12T00:51:14;103974.08;;;7.64;78.77
58967;BME280;44744;51.894;5.080;2023-02-12T00:52:15;103967.38;;;7.62;78.60
58967;BME280;44744;51.894;5.080;2023-02-12T00:53:15;103972.48;;;7.62;78.44
58967;BME280;44744;51.894;5.080;2023-02-12T00:54:16;103974.59;;;7.60;78.59
58967;BME280;44744;51.894;5.080;2023-02-12T00:55:16;103977.58;;;7.61;78.63
58967;BME280;44744;51.894;5.080;2023-02-12T00:56:17;103977.40;;;7.61;78.48
58967;BME280;44744;51.894;5.080;2023-02-12T00:57:17;103980.58;;;7.61;78.53
58967;BME280;44744;51.894;5.080;2023-02-12T00:58:18;103978.64;;;7.61;78.52
58967;BME280;44744;51.894;5.080;2023-02-12T00:59:18;103978.11;;;7.61;78.39
58967;BME280;44744;51.894;5.080;2023-02-12T01:00:18;103975.13;;;7.62;78.56
58967;BME280;44744;51.894;5.080;2023-02-12T01:01:19;103974.95;;;7.63;78.61
58967;BME280;44744;51.894;5.080;2023-02-12T01:02:19;103974.97;;;7.65;78.48
58967;BME280;44744;51.894;5.080;2023-02-12T01:03:34;103971.61;;;7.64;78.52
58967;BME280;44744;51.894;5.080;2023-02-12T01:04:35;103966.67;;;7.62;78.52
58967;BME280;44744;51.894;5.080;2023-02-12T01:05:44;103970.90;;;7.63;78.63
58967;BME280;44744;51.894;5.080;2023-02-12T01:06:45;103966.33;;;7.64;78.58
58967;BME280;44744;51.894;5.080;2023-02-12T01:07:54;103968.98;;;7.64;78.62
58967;BME280;44744;51.894;5.080;2023-02-12T01:09:13;103968.79;;;7.63;78.48
58967;BME280;44744;51.894;5.080;2023-02-12T01:10:20;103971.59;;;7.62;78.46
58967;BME280;44744;51.894;5.080;2023-02-12T01:11:20;103974.77;;;7.60;78.62
58967;BME280;44744;51.894;5.080;2023-02-12T01:12:23;103973.36;;;7.62;78.64
58967;BME280;44744;51.894;5.080;2023-02-12T01:13:32;103976.55;;;7.63;78.68
58967;BME280;44744;51.894;5.080;2023-02-12T01:14:33;103976.20;;;7.64;78.63
58967;BME280;44744;51.894;5.080;2023-02-12T01:15:33;103976.73;;;7.66;78.71
58967;BME280;44744;51.894;5.080;2023-02-12T01:16:34;103977.63;;;7.67;78.67
58967;BME280;44744;51.894;5.080;2023-02-12T01:17:35;103970.94;;;7.68;78.72
58967;BME280;44744;51.894;5.080;2023-02-12T01:18:36;103972.01;;;7.69;78.61
58967;BME280;44744;51.894;5.080;2023-02-12T01:19:37;103970.94;;;7.69;78.47
58967;BME280;44744;51.894;5.080;2023-02-12T01:20:38;103971.11;;;7.67;78.52
58967;BME280;44744;51.894;5.080;2023-02-12T01:21:39;103965.83;;;7.66;78.29
58967;BME280;44744;51.894;5.080;2023-02-12T01:22:39;103967.20;;;7.64;78.29
58967;BME280;44744;51.894;5.080;2023-02-12T01:23:40;103966.15;;;7.63;78.33
58967;BME280;44744;51.894;5.080;2023-02-12T01:24:41;103967.20;;;7.64;78.39
58967;BME280;44744;51.894;5.080;2023-02-12T01:25:41;103965.09;;;7.63;78.32
58967;BME280;44744;51.894;5.080;2023-02-12T01:27:18;103966.33;;;7.63;78.38
58967;BME280;44744;51.894;5.080;2023-02-12T01:28:19;103965.41;;;7.59;78.40
58967;BME280;44744;51.894;5.080;2023-02-12T01:29:19;103966.10;;;7.57;78.33
58967;BME280;44744;51.894;5.080;2023-02-12T01:30:20;103963.98;;;7.57;78.37
58967;BME280;44744;51.894;5.080;2023-02-12T01:31:39;103963.98;;;7.58;78.57
58967;BME280;44744;51.894;5.080;2023-02-12T01:32:39;103959.77;;;7.59;78.53
58967;BME280;44744;51.894;5.080;2023-02-12T01:33:40;103958.02;;;7.59;78.49
58967;BME280;44744;51.894;5.080;2023-02-12T01:34:47;103958.37;;;7.59;78.42
58967;BME280;44744;51.894;5.080;2023-02-12T01:35:47;103964.18;;;7.59;78.54
58967;BME280;44744;51.894;5.080;2023-02-12T01:36:48;103961.89;;;7.59;78.49
58967;BME280;44744;51.894;5.080;2023-02-12T01:37:48;103961.53;;;7.58;78.44
58967;BME280;44744;51.894;5.080;2023-02-12T01:38:49;103962.23;;;7.58;78.31
58967;BME280;44744;51.894;5.080;2023-02-12T01:40:00;103962.41;;;7.57;78.37
58967;BME280;44744;51.894;5.080;2023-02-12T01:41:05;103962.56;;;7.57;78.41
58967;BME280;44744;51.894;5.080;2023-02-12T01:42:16;103966.98;;;7.59;78.50
58967;BME280;44744;51.894;5.080;2023-02-12T01:46:35;103969.63;;;7.58;78.49
58967;BME280;44744;51.894;5.080;2023-02-12T01:47:36;103971.02;;;7.55;78.49
58967;BME280;44744;51.894;5.080;2023-02-12T01:48:39;103973.13;;;7.56;78.60
58967;BME280;44744;51.894;5.080;2023-02-12T01:49:46;103971.73;;;7.57;78.68
58967;BME280;44744;51.894;5.080;2023-02-12T01:50:49;103968.93;;;7.57;78.61
58967;BME280;44744;51.894;5.080;2023-02-12T01:52:27;103970.17;;;7.59;78.62
58967;BME280;44744;51.894;5.080;2023-02-12T01:53:40;103971.56;;;7.57;78.67
58967;BME280;44744;51.894;5.080;2023-02-12T01:55:08;103969.26;;;7.55;78.42
58967;BME280;44744;51.894;5.080;2023-02-12T01:56:24;103972.04;;;7.51;78.45
58967;BME280;44744;51.894;5.080;2023-02-12T01:57:27;103972.20;;;7.48;78.49
58967;BME280;44744;51.894;5.080;2023-02-12T01:58:33;103969.91;;;7.47;78.35
58967;BME280;44744;51.894;5.080;2023-02-12T01:59:36;103968.69;;;7.47;78.41
58967;BME280;44744;51.894;5.080;2023-02-12T02:00:37;103968.33;;;7.48;78.45
58967;BME280;44744;51.894;5.080;2023-02-12T02:01:38;103966.05;;;7.49;78.58
58967;BME280;44744;51.894;5.080;2023-02-12T02:02:50;103970.27;;;7.50;78.55
58967;BME280;44744;51.894;5.080;2023-02-12T02:03:56;103970.45;;;7.50;78.55
58967;BME280;44744;51.894;5.080;2023-02-12T02:05:01;103973.63;;;7.51;78.74
58967;BME280;44744;51.894;5.080;2023-02-12T02:06:08;103975.21;;;7.50;78.78
58967;BME280;44744;51.894;5.080;2023-02-12T02:07:10;103977.67;;;7.50;78.71
58967;BME280;44744;51.894;5.080;2023-02-12T02:08:11;103978.02;;;7.49;78.56
58967;BME280;44744;51.894;5.080;2023-02-12T02:09:12;103975.90;;;7.47;78.55
58967;BME280;44744;51.894;5.080;2023-02-12T02:10:13;103974.82;;;7.45;78.51
58967;BME280;44744;51.894;5.080;2023-02-12T02:12:53;103974.09;;;7.41;78.50
58967;BME280;44744;51.894;5.080;2023-02-12T02:13:59;103977.23;;;7.40;78.54
58967;BME280;44744;51.894;5.080;2023-02-12T02:15:02;103974.95;;;7.39;78.62
58967;BME280;44744;51.894;5.080;2023-02-12T02:16:13;103977.76;;;7.38;78.74
58967;BME280;44744;51.894;5.080;2023-02-12T02:22:36;103971.85;;;7.47;78.99
58967;BME280;44744;51.894;5.080;2023-02-12T02:30:43;103967.65;;;7.51;79.07
58967;BME280;44744;51.894;5.080;2023-02-12T02:32:28;103968.71;;;7.52;78.85
58967;BME280;44744;51.894;5.080;2023-02-12T02:35:02;103968.48;;;7.46;78.66
58967;BME280;44744;51.894;5.080;2023-02-12T02:36:19;103967.93;;;7.43;78.74
58967;BME280;44744;51.894;5.080;2023-02-12T02:37:25;103965.80;;;7.41;78.63
58967;BME280;44744;51.894;5.080;2023-02-12T02:38:47;103968.96;;;7.39;78.67
58967;BME280;44744;51.894;5.080;2023-02-12T02:39:57;103973.69;;;7.35;78.56
58967;BME280;44744;51.894;5.080;2023-02-12T02:41:07;103972.23;;;7.32;78.55
58967;BME280;44744;51.894;5.080;2023-02-12T02:42:21;103971.89;;;7.30;78.47
58967;BME280;44744;51.894;5.080;2023-02-12T02:43:29;103971.34;;;7.29;78.63
58967;BME280;44744;51.894;5.080;2023-02-12T02:45:50;103968.86;;;7.27;78.72
58967;BME280;44744;51.894;5.080;2023-02-12T02:46:52;103967.27;;;7.28;78.93
58967;BME280;44744;51.894;5.080;2023-02-12T02:47:58;103966.59;;;7.30;78.90
58967;BME280;44744;51.894;5.080;2023-02-12T02:49:06;103969.08;;;7.32;79.11
58967;BME280;44744;51.894;5.080;2023-02-12T02:50:14;103965.93;;;7.35;79.15
58967;BME280;44744;51.894;5.080;2023-02-12T02:51:20;103963.65;;;7.36;78.95
58967;BME280;44744;51.894;5.080;2023-02-12T02:52:27;103966.10;;;7.36;78.93
58967;BME280;44744;51.894;5.080;2023-02-12T02:53:46;103961.54;;;7.36;78.97
58967;BME280;44744;51.894;5.080;2023-02-12T02:54:52;103961.00;;;7.36;78.89
58967;BME280;44744;51.894;5.080;2023-02-12T02:55:56;103959.42;;;7.35;79.03
58967;BME280;44744;51.894;5.080;2023-02-12T02:57:04;103958.71;;;7.35;78.94
58967;BME280;44744;51.894;5.080;2023-02-12T02:58:12;103960.82;;;7.34;78.72
58967;BME280;44744;51.894;5.080;2023-02-12T02:59:28;103959.40;;;7.33;78.77
58967;BME280;44744;51.894;5.080;2023-02-12T03:00:36;103960.27;;;7.31;78.81
58967;BME280;44744;51.894;5.080;2023-02-12T03:01:43;103955.86;;;7.30;78.90
58967;BME280;44744;51.894;5.080;2023-02-12T03:02:49;103956.57;;;7.30;78.86
58967;BME280;44744;51.894;5.080;2023-02-12T03:04:05;103953.04;;;7.30;78.76
58967;BME280;44744;51.894;5.080;2023-02-12T03:05:15;103953.21;;;7.29;78.76
58967;BME280;44744;51.894;5.080;2023-02-12T03:06:33;103954.45;;;7.30;78.66
58967;BME280;44744;51.894;5.080;2023-02-12T03:07:49;103950.23;;;7.30;78.76
58967;BME280;44744;51.894;5.080;2023-02-12T03:08:58;103949.53;;;7.31;78.89
58967;BME280;44744;51.894;5.080;2023-02-12T03:10:25;103953.06;;;7.32;78.90
58967;BME280;44744;51.894;5.080;2023-02-12T03:11:28;103953.41;;;7.33;78.75
58967;BME280;44744;51.894;5.080;2023-02-12T03:12:40;103954.98;;;7.32;78.72
58967;BME280;44744;51.894;5.080;2023-02-12T03:13:49;103958.87;;;7.32;78.57
58967;BME280;44744;51.894;5.080;2023-02-12T03:15:00;103952.52;;;7.31;78.68
58967;BME280;44744;51.894;5.080;2023-02-12T03:16:26;103955.34;;;7.33;78.68
58967;BME280;44744;51.894;5.080;2023-02-12T03:17:34;103953.77;;;7.34;78.69
58967;BME280;44744;51.894;5.080;2023-02-12T03:18:42;103957.66;;;7.34;78.78
58967;BME280;44744;51.894;5.080;2023-02-12T03:19:50;103951.84;;;7.34;78.56
58967;BME280;44744;51.894;5.080;2023-02-12T03:20:59;103951.82;;;7.32;78.58
58967;BME280;44744;51.894;5.080;2023-02-12T03:22:08;103948.84;;;7.33;78.44
58967;BME280;44744;51.894;5.080;2023-02-12T03:23:16;103942.15;;;7.34;78.57
58967;BME280;44744;51.894;5.080;2023-02-12T03:24:45;103941.79;;;7.33;78.50
58967;BME280;44744;51.894;5.080;2023-02-12T03:26:58;103941.92;;;7.28;78.35
58967;BME280;44744;51.894;5.080;2023-02-12T03:28:17;103948.98;;;7.28;78.39
58967;BME280;44744;51.894;5.080;2023-02-12T03:29:19;103947.73;;;7.26;78.25
58967;BME280;44744;51.894;5.080;2023-02-12T03:30:37;103948.06;;;7.24;78.32
58967;BME280;44744;51.894;5.080;2023-02-12T03:35:37;103941.91;;;7.24;78.24
58967;BME280;44744;51.894;5.080;2023-02-12T03:36:48;103946.63;;;7.22;78.32
58967;BME280;44744;51.894;5.080;2023-02-12T03:38:00;103952.42;;;7.21;78.32
58967;BME280;44744;51.894;5.080;2023-02-12T03:40:36;103952.77;;;7.20;78.22
58967;BME280;44744;51.894;5.080;2023-02-12T03:41:43;103955.41;;;7.20;78.25
58967;BME280;44744;51.894;5.080;2023-02-12T03:43:08;103955.24;;;7.20;78.30
58967;BME280;44744;51.894;5.080;2023-02-12T03:44:22;103957.19;;;7.21;78.27
58967;BME280;44744;51.894;5.080;2023-02-12T03:45:42;103955.06;;;7.20;78.24
58967;BME280;44744;51.894;5.080;2023-02-12T03:47:01;103951.18;;;7.19;78.40
58967;BME280;44744;51.894;5.080;2023-02-12T03:48:10;103950.83;;;7.17;78.35
58967;BME280;44744;51.894;5.080;2023-02-12T03:49:21;103951.16;;;7.17;78.32
58967;BME280;44744;51.894;5.080;2023-02-12T03:50:35;103951.34;;;7.16;78.45
58967;BME280;44744;51.894;5.080;2023-02-12T03:51:40;103950.10;;;7.16;78.33
58967;BME280;44744;51.894;5.080;2023-02-12T03:52:41;103950.63;;;7.15;78.19
58967;BME280;44744;51.894;5.080;2023-02-12T03:53:42;103950.27;;;7.16;78.43
58967;BME280;44744;51.894;5.080;2023-02-12T03:54:42;103947.81;;;7.15;78.33
58967;BME280;44744;51.894;5.080;2023-02-12T03:55:46;103950.27;;;7.15;78.28
58967;BME280;44744;51.894;5.080;2023-02-12T03:56:49;103947.98;;;7.15;78.26
58967;BME280;44744;51.894;5.080;2023-02-12T03:57:56;103949.55;;;7.14;78.24
58967;BME280;44744;51.894;5.080;2023-02-12T03:58:58;103951.68;;;7.15;78.25
58967;BME280;44744;51.894;5.080;2023-02-12T04:00:21;103952.73;;;7.16;78.24
58967;BME280;44744;51.894;5.080;2023-02-12T04:01:21;103955.39;;;7.16;78.26
58967;BME280;44744;51.894;5.080;2023-02-12T04:02:22;103957.67;;;7.16;78.32
58967;BME280;44744;51.894;5.080;2023-02-12T04:03:23;103957.68;;;7.18;78.37
58967;BME280;44744;51.894;5.080;2023-02-12T04:04:24;103959.98;;;7.20;78.31
58967;BME280;44744;51.894;5.080;2023-02-12T04:05:26;103958.58;;;7.19;78.32
58967;BME280;44744;51.894;5.080;2023-02-12T04:06:27;103958.05;;;7.19;78.34
58967;BME280;44744;51.894;5.080;2023-02-12T04:07:27;103961.92;;;7.20;78.27
58967;BME280;44744;51.894;5.080;2023-02-12T04:08:28;103964.56;;;7.20;78.31
58967;BME280;44744;51.894;5.080;2023-02-12T04:09:30;103963.33;;;7.19;78.21
58967;BME280;44744;51.894;5.080;2023-02-12T04:10:55;103959.12;;;7.20;78.29
58967;BME280;44744;51.894;5.080;2023-02-12T04:14:55;103968.06;;;7.16;78.25
58967;BME280;44744;51.894;5.080;2023-02-12T04:19:02;103972.21;;;7.09;78.10
58967;BME280;44744;51.894;5.080;2023-02-12T04:22:04;103971.68;;;7.08;78.11
58967;BME280;44744;51.894;5.080;2023-02-12T04:23:21;103973.45;;;7.09;78.37
58967;BME280;44744;51.894;5.080;2023-02-12T04:24:38;103974.17;;;7.11;78.27
58967;BME280;44744;51.894;5.080;2023-02-12T04:25:51;103972.59;;;7.11;78.40
58967;BME280;44744;51.894;5.080;2023-02-12T04:27:13;103973.65;;;7.11;78.36
58967;BME280;44744;51.894;5.080;2023-02-12T04:28:42;103973.81;;;7.10;78.42
58967;BME280;44744;51.894;5.080;2023-02-12T04:30:02;103973.45;;;7.08;78.35
58967;BME280;44744;51.894;5.080;2023-02-12T04:31:11;103973.43;;;7.08;78.50
58967;BME280;44744;51.894;5.080;2023-02-12T04:33:38;103977.32;;;7.09;78.51
58967;BME280;44744;51.894;5.080;2023-02-12T04:36:05;103979.23;;;7.08;78.38
58967;BME280;44744;51.894;5.080;2023-02-12T04:37:33;103979.77;;;7.07;78.23
58967;BME280;44744;51.894;5.080;2023-02-12T04:38:56;103980.27;;;7.05;78.30
58967;BME280;44744;51.894;5.080;2023-02-12T04:39:58;103979.77;;;7.07;78.45
58967;BME280;44744;51.894;5.080;2023-02-12T04:41:04;103978.71;;;7.07;78.31
58967;BME280;44744;51.894;5.080;2023-02-12T04:42:06;103979.07;;;7.08;78.40
58967;BME280;44744;51.894;5.080;2023-02-12T04:43:06;103980.48;;;7.09;78.43
58967;BME280;44744;51.894;5.080;2023-02-12T04:44:37;103982.09;;;7.10;78.25
58967;BME280;44744;51.894;5.080;2023-02-12T04:45:38;103984.36;;;7.09;78.41
58967;BME280;44744;51.894;5.080;2023-02-12T04:46:38;103982.95;;;7.09;78.47
58967;BME280;44744;51.894;5.080;2023-02-12T04:47:38;103985.26;;;7.10;78.41
58967;BME280;44744;51.894;5.080;2023-02-12T04:48:52;103982.80;;;7.11;78.39
58967;BME280;44744;51.894;5.080;2023-02-12T04:49:53;103984.56;;;7.12;78.50
58967;BME280;44744;51.894;5.080;2023-02-12T04:50:53;103981.76;;;7.12;78.53
58967;BME280;44744;51.894;5.080;2023-02-12T04:51:53;103984.58;;;7.13;78.56
58967;BME280;44744;51.894;5.080;2023-02-12T04:52:54;103980.35;;;7.14;78.45
58967;BME280;44744;51.894;5.080;2023-02-12T04:53:54;103980.37;;;7.15;78.36
58967;BME280;44744;51.894;5.080;2023-02-12T04:54:54;103980.36;;;7.15;78.34
58967;BME280;44744;51.894;5.080;2023-02-12T04:55:54;103983.36;;;7.15;78.29
58967;BME280;44744;51.894;5.080;2023-02-12T04:56:55;103982.31;;;7.15;78.34
58967;BME280;44744;51.894;5.080;2023-02-12T04:57:55;103982.83;;;7.15;78.17
58967;BME280;44744;51.894;5.080;2023-02-12T04:58:55;103980.19;;;7.15;78.19
58967;BME280;44744;51.894;5.080;2023-02-12T04:59:56;103981.08;;;7.15;78.20
58967;BME280;44744;51.894;5.080;2023-02-12T05:00:58;103978.60;;;7.15;78.13
58967;BME280;44744;51.894;5.080;2023-02-12T05:01:58;103980.38;;;7.16;78.25
58967;BME280;44744;51.894;5.080;2023-02-12T05:02:58;103983.39;;;7.18;78.24
58967;BME280;44744;51.894;5.080;2023-02-12T05:03:59;103981.10;;;7.19;78.23
58967;BME280;44744;51.894;5.080;2023-02-12T05:05:00;103980.41;;;7.20;78.24
58967;BME280;44744;51.894;5.080;2023-02-12T05:06:05;103982.36;;;7.21;78.33
58967;BME280;44744;51.894;5.080;2023-02-12T05:07:05;103987.29;;;7.20;78.21
58967;BME280;44744;51.894;5.080;2023-02-12T05:08:05;103989.23;;;7.21;78.32
58967;BME280;44744;51.894;5.080;2023-02-12T05:10:44;103988.14;;;7.19;78.18
58967;BME280;44744;51.894;5.080;2023-02-12T05:11:44;103987.61;;;7.17;78.20
58967;BME280;44744;51.894;5.080;2023-02-12T05:12:45;103985.67;;;7.17;78.12
58967;BME280;44744;51.894;5.080;2023-02-12T05:13:49;103986.20;;;7.18;78.06
58967;BME280;44744;51.894;5.080;2023-02-12T05:14:49;103984.62;;;7.18;78.17
58967;BME280;44744;51.894;5.080;2023-02-12T05:15:49;103986.92;;;7.19;78.17
58967;BME280;44744;51.894;5.080;2023-02-12T05:16:50;103988.52;;;7.20;78.16
58967;BME280;44744;51.894;5.080;2023-02-12T05:17:50;103990.63;;;7.20;78.18
58967;BME280;44744;51.894;5.080;2023-02-12T05:18:51;103992.73;;;7.20;78.07
58967;BME280;44744;51.894;5.080;2023-02-12T05:19:51;103996.42;;;7.21;78.01
58967;BME280;44744;51.894;5.080;2023-02-12T05:20:56;103992.39;;;7.21;78.14
58967;BME280;44744;51.894;5.080;2023-02-12T05:21:59;103992.92;;;7.22;78.07
58967;BME280;44744;51.894;5.080;2023-02-12T05:23:00;103991.17;;;7.23;78.04
58967;BME280;44744;51.894;5.080;2023-02-12T05:24:01;103991.17;;;7.23;78.11
58967;BME280;44744;51.894;5.080;2023-02-12T05:25:01;103988.20;;;7.24;78.13
58967;BME280;44744;51.894;5.080;2023-02-12T05:26:04;103989.27;;;7.24;78.15
58967;BME280;44744;51.894;5.080;2023-02-12T05:27:05;103994.00;;;7.24;78.13
58967;BME280;44744;51.894;5.080;2023-02-12T05:28:05;103989.95;;;7.24;78.13
58967;BME280;44744;51.894;5.080;2023-02-12T05:29:06;103990.85;;;7.26;77.99
58967;BME280;44744;51.894;5.080;2023-02-12T05:30:07;103989.61;;;7.26;77.99
58967;BME280;44744;51.894;5.080;2023-02-12T05:31:09;103987.16;;;7.27;78.12
58967;BME280;44744;51.894;5.080;2023-02-12T05:32:10;103988.75;;;7.27;78.21
58967;BME280;44744;51.894;5.080;2023-02-12T05:33:10;103987.52;;;7.28;78.11
58967;BME280;44744;51.894;5.080;2023-02-12T05:34:11;103987.52;;;7.26;77.98
58967;BME280;44744;51.894;5.080;2023-02-12T05:35:12;103990.48;;;7.24;77.81
58967;BME280;44744;51.894;5.080;2023-02-12T05:36:15;103988.19;;;7.22;77.80
58967;BME280;44744;51.894;5.080;2023-02-12T05:37:16;103989.58;;;7.22;77.92
58967;BME280;44744;51.894;5.080;2023-02-12T05:38:16;103988.52;;;7.21;77.86
58967;BME280;44744;51.894;5.080;2023-02-12T05:39:16;103989.39;;;7.22;77.98
58967;BME280;44744;51.894;5.080;2023-02-12T05:40:16;103989.77;;;7.23;77.92
58967;BME280;44744;51.894;5.080;2023-02-12T05:41:20;103989.79;;;7.25;77.94
58967;BME280;44744;51.894;5.080;2023-02-12T05:42:21;103988.40;;;7.27;78.09
58967;BME280;44744;51.894;5.080;2023-02-12T05:43:21;103990.02;;;7.31;78.16
58967;BME280;44744;51.894;5.080;2023-02-12T05:44:22;103991.10;;;7.33;78.08
58967;BME280;44744;51.894;5.080;2023-02-12T05:45:22;103989.00;;;7.35;78.12
58967;BME280;44744;51.894;5.080;2023-02-12T05:46:22;103985.47;;;7.33;77.79
58967;BME280;44744;51.894;5.080;2023-02-12T05:47:23;103991.45;;;7.34;77.96
58967;BME280;44744;51.894;5.080;2023-02-12T05:48:24;103991.10;;;7.34;77.89
58967;BME280;44744;51.894;5.080;2023-02-12T05:49:24;103993.58;;;7.35;77.98
58967;BME280;44744;51.894;5.080;2023-02-12T05:50:24;103991.45;;;7.34;77.88
58967;BME280;44744;51.894;5.080;2023-02-12T05:51:25;103992.67;;;7.33;77.69
58967;BME280;44744;51.894;5.080;2023-02-12T05:52:26;103991.44;;;7.32;77.74
58967;BME280;44744;51.894;5.080;2023-02-12T05:53:26;103994.77;;;7.32;77.85
58967;BME280;44744;51.894;5.080;2023-02-12T05:54:27;103993.73;;;7.32;77.67
58967;BME280;44744;51.894;5.080;2023-02-12T05:55:27;103994.77;;;7.29;77.57
58967;BME280;44744;51.894;5.080;2023-02-12T05:56:35;103991.58;;;7.28;77.49
58967;BME280;44744;51.894;5.080;2023-02-12T05:57:35;103993.33;;;7.27;77.57
58967;BME280;44744;51.894;5.080;2023-02-12T05:58:36;103991.02;;;7.25;77.50
58967;BME280;44744;51.894;5.080;2023-02-12T05:59:36;103990.65;;;7.24;77.40
58967;BME280;44744;51.894;5.080;2023-02-12T06:00:37;103992.95;;;7.24;77.37
58967;BME280;44744;51.894;5.080;2023-02-12T06:01:39;103990.47;;;7.23;77.53
58967;BME280;44744;51.894;5.080;2023-02-12T06:02:40;103988.36;;;7.23;77.54
58967;BME280;44744;51.894;5.080;2023-02-12T06:03:40;103986.60;;;7.23;77.55
58967;BME280;44744;51.894;5.080;2023-02-12T06:04:41;103983.98;;;7.24;77.74
58967;BME280;44744;51.894;5.080;2023-02-12T06:05:41;103985.39;;;7.25;77.69
58967;BME280;44744;51.894;5.080;2023-02-12T06:06:41;103990.31;;;7.26;77.66
58967;BME280;44744;51.894;5.080;2023-02-12T06:07:42;103992.42;;;7.25;77.74
58967;BME280;44744;51.894;5.080;2023-02-12T06:08:42;103995.93;;;7.24;77.72
58967;BME280;44744;51.894;5.080;2023-02-12T06:09:43;103991.70;;;7.23;77.68
58967;BME280;44744;51.894;5.080;2023-02-12T06:10:43;103994.52;;;7.23;77.70
58967;BME280;44744;51.894;5.080;2023-02-12T06:11:44;103990.81;;;7.23;77.66
58967;BME280;44744;51.894;5.080;2023-02-12T06:12:44;103991.34;;;7.22;77.65
58967;BME280;44744;51.894;5.080;2023-02-12T06:13:46;103991.52;;;7.22;77.64
58967;BME280;44744;51.894;5.080;2023-02-12T06:14:46;103992.92;;;7.22;77.78
58967;BME280;44744;51.894;5.080;2023-02-12T06:15:47;103993.79;;;7.19;77.60
58967;BME280;44744;51.894;5.080;2023-02-12T06:16:49;103996.05;;;7.18;77.56
58967;BME280;44744;51.894;5.080;2023-02-12T06:17:50;103997.11;;;7.17;77.51
58967;BME280;44744;51.894;5.080;2023-02-12T06:18:53;103997.63;;;7.16;77.66
58967;BME280;44744;51.894;5.080;2023-02-12T06:19:54;103995.34;;;7.15;77.51
58967;BME280;44744;51.894;5.080;2023-02-12T06:20:54;103998.34;;;7.16;77.66
58967;BME280;44744;51.894;5.080;2023-02-12T06:21:54;103997.28;;;7.17;77.58
58967;BME280;44744;51.894;5.080;2023-02-12T06:22:55;104000.09;;;7.17;77.56